createdAt,value
2022-11-26T00:00:15.151Z,0
2022-11-26T00:00:49.062Z,0
2022-11-26T00:01:25.611Z,0
2022-11-26T00:01:43.841Z,0
2022-11-26T00:02:06.201Z,0
2022-11-26T00:02:41.123Z,0
2022-11-26T00:03:13.613Z,0
2022-11-26T00:03:45.183Z,0
2022-11-26T00:04:17.209Z,0
2022-11-26T00:04:48.936Z,0
2022-11-26T00:05:21.339Z,0
2022-11-26T00:05:44.109Z,0
2022-11-26T00:06:07.039Z,0
2022-11-26T00:06:41.037Z,0
2022-11-26T00:07:14.464Z,0
2022-11-26T00:07:45.260Z,0
2022-11-26T00:08:14.807Z,0
2022-11-26T00:08:49.136Z,0
2022-11-26T00:09:21.019Z,0
2022-11-26T00:09:44.138Z,0
2022-11-26T00:10:06.764Z,0
2022-11-26T00:10:41.139Z,0
2022-11-26T00:11:12.989Z,0
2022-11-26T00:11:53.415Z,.32
2022-11-26T00:12:16.329Z,1.44
2022-11-26T00:12:49.430Z,0
2022-11-26T00:13:24.920Z,0
2022-11-26T00:13:53.980Z,1.44
2022-11-26T00:14:26.861Z,.64
2022-11-26T00:14:48.059Z,.32
2022-11-26T00:15:10.806Z,1.77
2022-11-26T00:15:45.477Z,.32
2022-11-26T00:16:14.853Z,.32
2022-11-26T00:16:49.210Z,1.12
2022-11-26T00:17:21.200Z,1.12
2022-11-26T00:17:43.835Z,1.77
2022-11-26T00:18:07.126Z,.64
2022-11-26T00:18:42.081Z,0
2022-11-26T00:19:17.089Z,0
2022-11-26T00:19:45.800Z,1.44
2022-11-26T00:20:14.865Z,1.77
2022-11-26T00:20:49.681Z,1.44
2022-11-26T00:21:21.654Z,1.12
2022-11-26T00:21:44.818Z,1.77
2022-11-26T00:22:07.408Z,0
2022-11-26T00:22:41.648Z,1.44
2022-11-26T00:23:13.053Z,0
2022-11-26T00:23:45.096Z,0
2022-11-26T00:24:14.705Z,0
2022-11-26T00:24:49.250Z,1.12
2022-11-26T00:25:21.154Z,1.12
2022-11-26T00:25:43.866Z,0
2022-11-26T00:26:06.524Z,3.54
2022-11-26T00:26:41.652Z,2.57
2022-11-26T00:27:13.672Z,1.44
2022-11-26T00:27:45.170Z,.32
2022-11-26T00:28:15.391Z,0
2022-11-26T00:28:49.508Z,1.12
2022-11-26T00:29:22.616Z,0
2022-11-26T00:29:45.116Z,1.44
2022-11-26T00:30:07.846Z,1.44
2022-11-26T00:30:41.488Z,2.09
2022-11-26T00:31:13.142Z,3.54
2022-11-26T00:31:48.210Z,1.77
2022-11-26T00:32:20.306Z,.64
2022-11-26T00:32:49.738Z,1.44
2022-11-26T00:33:21.033Z,1.77
2022-11-26T00:33:43.841Z,3.54
2022-11-26T00:34:07.052Z,1.77
2022-11-26T00:34:41.505Z,1.77
2022-11-26T00:35:13.771Z,0
2022-11-26T00:35:45.047Z,0
2022-11-26T00:36:15.607Z,0
2022-11-26T00:36:48.983Z,0
2022-11-26T00:37:21.100Z,0
2022-11-26T00:37:45.151Z,0
2022-11-26T00:38:06.667Z,1.44
2022-11-26T00:38:41.681Z,.32
2022-11-26T00:39:13.031Z,0
2022-11-26T00:39:45.468Z,0
2022-11-26T00:40:15.268Z,1.44
2022-11-26T00:40:49.315Z,0
2022-11-26T00:41:21.099Z,0
2022-11-26T00:41:43.847Z,.64
2022-11-26T00:42:06.944Z,.32
2022-11-26T00:42:42.031Z,1.44
2022-11-26T00:43:12.906Z,1.12
2022-11-26T00:43:45.469Z,1.12
2022-11-26T00:44:15.604Z,.64
2022-11-26T00:44:49.302Z,0
2022-11-26T00:45:23.169Z,0
2022-11-26T00:45:45.696Z,.32
2022-11-26T00:46:08.062Z,.32
2022-11-26T00:46:41.554Z,1.44
2022-11-26T00:47:15.431Z,0
2022-11-26T00:47:45.614Z,1.44
2022-11-26T00:48:15.199Z,1.77
2022-11-26T00:48:49.465Z,0
2022-11-26T00:49:21.467Z,0
2022-11-26T00:49:44.196Z,0
2022-11-26T00:50:06.720Z,1.12
2022-11-26T00:50:41.011Z,.32
2022-11-26T00:51:14.051Z,2.89
2022-11-26T00:51:45.382Z,1.77
2022-11-26T00:52:15.200Z,2.89
2022-11-26T00:52:49.313Z,2.09
2022-11-26T00:53:21.520Z,0
2022-11-26T00:53:43.634Z,0
2022-11-26T00:54:06.348Z,0
2022-11-26T00:54:41.430Z,0
2022-11-26T00:55:13.153Z,0
2022-11-26T00:55:45.080Z,0
2022-11-26T00:56:15.196Z,0
2022-11-26T00:56:49.037Z,0
2022-11-26T00:57:21.122Z,.32
2022-11-26T00:57:43.828Z,1.77
2022-11-26T00:58:06.921Z,0
2022-11-26T00:58:41.043Z,.32
2022-11-26T00:59:13.933Z,0
2022-11-26T00:59:45.385Z,0
2022-11-26T01:00:14.846Z,0
2022-11-26T01:00:49.394Z,0
2022-11-26T01:01:21.590Z,1.77
2022-11-26T01:01:44.065Z,1.12
2022-11-26T01:02:06.693Z,1.44
2022-11-26T01:02:42.003Z,0
2022-11-26T01:03:13.949Z,1.12
2022-11-26T01:03:45.128Z,.32
2022-11-26T01:04:14.671Z,0
2022-11-26T01:04:50.210Z,4.02
2022-11-26T01:05:21.278Z,.32
2022-11-26T01:05:43.876Z,0
2022-11-26T01:06:06.496Z,0
2022-11-26T01:06:41.671Z,.32
2022-11-26T01:07:13.565Z,1.12
2022-11-26T01:07:45.702Z,0
2022-11-26T01:08:15.167Z,0
2022-11-26T01:08:49.319Z,0
2022-11-26T01:09:21.687Z,0
2022-11-26T01:09:43.818Z,0
2022-11-26T01:10:06.273Z,.32
2022-11-26T01:10:42.900Z,1.12
2022-11-26T01:11:13.770Z,0
2022-11-26T01:11:54.428Z,.64
2022-11-26T01:12:16.828Z,0
2022-11-26T01:12:49.236Z,.32
2022-11-26T01:13:22.647Z,1.12
2022-11-26T01:13:45.330Z,.32
2022-11-26T01:14:08.513Z,.32
2022-11-26T01:14:41.125Z,.32
2022-11-26T01:15:13.189Z,0
2022-11-26T01:15:45.548Z,0
2022-11-26T01:16:15.408Z,.32
2022-11-26T01:16:49.260Z,2.09
2022-11-26T01:17:21.748Z,.32
2022-11-26T01:17:44.453Z,0
2022-11-26T01:18:07.121Z,0
2022-11-26T01:18:41.098Z,0
2022-11-26T01:19:13.106Z,0
2022-11-26T01:19:46.359Z,0
2022-11-26T01:20:20.446Z,0
2022-11-26T01:20:49.928Z,0
2022-11-26T01:21:21.034Z,0
2022-11-26T01:21:43.776Z,0
2022-11-26T01:22:06.375Z,1.12
2022-11-26T01:22:49.285Z,.32
2022-11-26T01:23:12.179Z,0
2022-11-26T01:23:45.025Z,0
2022-11-26T01:24:15.322Z,0
2022-11-26T01:24:48.861Z,0
2022-11-26T01:25:21.354Z,1.12
2022-11-26T01:25:44.032Z,.32
2022-11-26T01:26:06.802Z,.32
2022-11-26T01:26:41.967Z,0
2022-11-26T01:27:13.223Z,.32
2022-11-26T01:27:45.241Z,.64
2022-11-26T01:28:14.820Z,2.57
2022-11-26T01:28:49.813Z,.32
2022-11-26T01:29:21.149Z,0
2022-11-26T01:29:43.807Z,.64
2022-11-26T01:30:06.895Z,2.09
2022-11-26T01:30:41.546Z,0
2022-11-26T01:31:13.015Z,0
2022-11-26T01:31:45.045Z,0
2022-11-26T01:32:14.829Z,1.77
2022-11-26T01:32:49.050Z,1.12
2022-11-26T01:33:21.912Z,.32
2022-11-26T01:33:44.399Z,1.12
2022-11-26T01:34:07.239Z,0
2022-11-26T01:34:41.994Z,2.89
2022-11-26T01:35:14.557Z,1.44
2022-11-26T01:35:45.143Z,1.12
2022-11-26T01:36:14.785Z,0
2022-11-26T01:36:49.564Z,0
2022-11-26T01:37:21.645Z,0
2022-11-26T01:37:44.362Z,0
2022-11-26T01:38:06.894Z,0
2022-11-26T01:38:40.936Z,0
2022-11-26T01:39:13.504Z,0
2022-11-26T01:39:45.181Z,0
2022-11-26T01:40:16.239Z,0
2022-11-26T01:40:48.884Z,0
2022-11-26T01:41:21.023Z,1.44
2022-11-26T01:41:43.715Z,1.77
2022-11-26T01:42:07.219Z,0
2022-11-26T01:42:41.273Z,.64
2022-11-26T01:43:12.831Z,.64
2022-11-26T01:43:45.857Z,0
2022-11-26T01:44:15.048Z,3.21
2022-11-26T01:44:49.012Z,1.44
2022-11-26T01:45:21.656Z,1.77
2022-11-26T01:45:44.371Z,.32
2022-11-26T01:46:07.281Z,1.44
2022-11-26T01:46:41.049Z,0
2022-11-26T01:47:13.888Z,0
2022-11-26T01:47:45.821Z,0
2022-11-26T01:48:15.564Z,0
2022-11-26T01:48:50.151Z,0
2022-11-26T01:49:21.388Z,0
2022-11-26T01:49:44.149Z,1.44
2022-11-26T01:50:06.540Z,.32
2022-11-26T01:50:43.346Z,0
2022-11-26T01:51:16.402Z,.32
2022-11-26T01:51:45.032Z,.32
2022-11-26T01:52:15.021Z,0
2022-11-26T01:52:49.318Z,0
2022-11-26T01:53:20.890Z,1.12
2022-11-26T01:53:43.733Z,1.44
2022-11-26T01:54:08.075Z,1.44
2022-11-26T01:54:42.399Z,2.09
2022-11-26T01:55:13.628Z,1.44
2022-11-26T01:55:45.398Z,2.89
2022-11-26T01:56:15.350Z,1.44
2022-11-26T01:56:49.315Z,1.44
2022-11-26T01:57:21.229Z,.32
2022-11-26T01:57:43.983Z,1.12
2022-11-26T01:58:06.328Z,1.44
2022-11-26T01:58:43.596Z,.64
2022-11-26T01:59:14.244Z,.32
2022-11-26T01:59:45.550Z,1.12
2022-11-26T02:00:15.010Z,1.12
2022-11-26T02:00:49.420Z,1.44
2022-11-26T02:01:23.704Z,1.44
2022-11-26T02:01:44.078Z,1.77
2022-11-26T02:02:07.395Z,1.44
2022-11-26T02:10:09.137Z,2.57
2022-11-26T02:10:43.500Z,3.54
2022-11-26T02:11:13.206Z,1.12
2022-11-26T02:11:45.113Z,1.12
2022-11-26T02:12:16.232Z,2.09
2022-11-26T02:12:49.092Z,1.44
2022-11-26T02:13:26.488Z,1.44
2022-11-26T02:13:44.039Z,0
2022-11-26T02:14:06.676Z,0
2022-11-26T02:14:41.238Z,1.44
2022-11-26T02:15:13.051Z,1.77
2022-11-26T02:15:45.062Z,1.44
2022-11-26T02:16:17.181Z,2.89
2022-11-26T02:16:49.039Z,4.34
2022-11-26T02:17:20.971Z,1.12
2022-11-26T02:17:43.854Z,1.77
2022-11-26T02:18:06.347Z,.32
2022-11-26T02:18:41.008Z,.32
2022-11-26T02:19:12.993Z,.32
2022-11-26T02:19:45.104Z,2.89
2022-11-26T02:20:16.966Z,.32
2022-11-26T02:20:48.974Z,1.44
2022-11-26T02:21:20.980Z,2.57
2022-11-26T02:21:43.827Z,1.77
2022-11-26T02:22:06.089Z,.32
2022-11-26T02:22:41.035Z,3.21
2022-11-26T02:23:13.003Z,3.21
2022-11-26T02:23:44.866Z,1.44
2022-11-26T02:24:10.751Z,3.54
2022-11-26T02:24:49.426Z,2.89
2022-11-26T02:25:20.864Z,1.77
2022-11-26T02:25:43.493Z,2.09
2022-11-26T02:26:05.762Z,3.54
2022-11-26T02:26:41.283Z,2.89
2022-11-26T02:27:13.395Z,2.09
2022-11-26T02:27:50.817Z,1.77
2022-11-26T02:28:13.225Z,2.89
2022-11-26T02:28:49.119Z,2.09
2022-11-26T02:29:21.216Z,3.21
2022-11-26T02:29:44.397Z,2.09
2022-11-26T02:30:07.199Z,1.77
2022-11-26T02:30:40.994Z,2.09
2022-11-26T02:31:12.977Z,.64
2022-11-26T02:31:44.944Z,1.12
2022-11-26T02:32:14.869Z,1.44
2022-11-26T02:32:49.016Z,0
2022-11-26T02:33:21.019Z,1.44
2022-11-26T02:33:44.089Z,4.02
2022-11-26T02:34:06.387Z,2.89
2022-11-26T02:34:41.389Z,0
2022-11-26T02:35:12.863Z,.64
2022-11-26T02:35:45.529Z,2.89
2022-11-26T02:36:16.982Z,2.09
2022-11-26T02:36:49.224Z,2.09
2022-11-26T02:37:21.330Z,.32
2022-11-26T02:37:43.663Z,0
2022-11-26T02:38:05.960Z,.32
2022-11-26T02:38:41.230Z,2.09
2022-11-26T02:39:13.217Z,0
2022-11-26T02:39:44.910Z,0
2022-11-26T02:40:16.240Z,2.57
2022-11-26T02:40:48.922Z,1.12
2022-11-26T02:41:20.992Z,0
2022-11-26T02:41:46.172Z,0
2022-11-26T02:42:07.157Z,.32
2022-11-26T02:42:40.908Z,0
2022-11-26T02:43:13.057Z,6.11
2022-11-26T02:43:45.117Z,2.09
2022-11-26T02:44:14.792Z,0
2022-11-26T02:44:48.885Z,1.12
2022-11-26T02:45:21.280Z,1.12
2022-11-26T02:45:43.941Z,0
2022-11-26T02:46:06.276Z,0
2022-11-26T02:46:40.991Z,0
2022-11-26T02:47:12.863Z,0
2022-11-26T02:47:44.914Z,.32
2022-11-26T02:48:14.678Z,.64
2022-11-26T02:48:48.975Z,1.44
2022-11-26T02:49:21.034Z,0
2022-11-26T02:49:44.812Z,.32
2022-11-26T02:50:07.089Z,2.09
2022-11-26T02:50:40.995Z,2.09
2022-11-26T02:51:13.225Z,.64
2022-11-26T02:51:45.597Z,1.44
2022-11-26T02:52:17.189Z,1.12
2022-11-26T02:52:49.189Z,.32
2022-11-26T02:53:20.961Z,.32
2022-11-26T02:53:43.889Z,.32
2022-11-26T02:54:05.972Z,1.12
2022-11-26T02:54:41.242Z,2.09
2022-11-26T02:55:12.890Z,2.89
2022-11-26T02:55:44.970Z,.32
2022-11-26T02:56:14.868Z,2.09
2022-11-26T02:56:48.988Z,1.12
2022-11-26T02:57:20.862Z,3.21
2022-11-26T02:57:43.609Z,2.09
2022-11-26T02:58:05.872Z,0
2022-11-26T02:58:41.055Z,.64
2022-11-26T02:59:13.034Z,1.12
2022-11-26T02:59:44.850Z,1.77
2022-11-26T03:00:17.424Z,1.12
2022-11-26T03:00:49.156Z,0
2022-11-26T03:01:21.503Z,.32
2022-11-26T03:01:44.214Z,0
2022-11-26T03:02:06.390Z,.32
2022-11-26T03:02:42.525Z,0
2022-11-26T03:03:07.099Z,.32
2022-11-26T03:03:53.234Z,0
2022-11-26T03:04:14.108Z,0
2022-11-26T03:04:49.452Z,1.77
2022-11-26T03:05:21.100Z,0
2022-11-26T03:05:49.589Z,2.09
2022-11-26T03:06:25.902Z,0
2022-11-26T03:06:48.409Z,0
2022-11-26T03:07:11.135Z,.32
2022-11-26T03:07:49.468Z,0
2022-11-26T03:08:11.634Z,1.44
2022-11-26T03:08:49.305Z,0
2022-11-26T03:09:49.615Z,0
2022-11-26T03:10:08.400Z,0
2022-11-26T03:10:41.161Z,.64
2022-11-26T03:11:12.939Z,0
2022-11-26T03:11:45.254Z,0
2022-11-26T03:12:15.070Z,1.44
2022-11-26T03:12:49.057Z,.32
2022-11-26T03:13:19.685Z,0
2022-11-26T03:13:42.455Z,0
2022-11-26T03:14:03.387Z,.32
2022-11-26T03:14:41.773Z,.32
2022-11-26T03:15:13.436Z,1.12
2022-11-26T03:15:45.038Z,0
2022-11-26T03:16:15.633Z,.32
2022-11-26T03:16:51.629Z,0
2022-11-26T03:17:21.195Z,0
2022-11-26T03:17:43.862Z,.32
2022-11-26T03:18:06.404Z,0
2022-11-26T03:18:40.971Z,.64
2022-11-26T03:19:13.150Z,.32
2022-11-26T03:19:45.445Z,2.89
2022-11-26T03:20:15.051Z,1.12
2022-11-26T03:20:52.239Z,3.54
2022-11-26T03:21:21.002Z,1.44
2022-11-26T03:21:43.571Z,1.12
2022-11-26T03:22:06.036Z,1.77
2022-11-26T03:22:41.841Z,2.57
2022-11-26T03:23:13.717Z,4.02
2022-11-26T03:23:45.637Z,2.89
2022-11-26T03:24:16.154Z,2.89
2022-11-26T03:24:49.315Z,1.77
2022-11-26T03:25:21.295Z,1.44
2022-11-26T03:25:44.156Z,0
2022-11-26T03:26:06.513Z,2.09
2022-11-26T03:26:41.091Z,1.44
2022-11-26T03:27:13.041Z,1.44
2022-11-26T03:27:44.949Z,2.89
2022-11-26T03:28:14.816Z,1.12
2022-11-26T03:28:49.786Z,1.77
2022-11-26T03:29:21.401Z,1.12
2022-11-26T03:29:44.007Z,.64
2022-11-26T03:30:06.636Z,.32
2022-11-26T03:30:41.096Z,1.77
2022-11-26T03:31:12.919Z,2.09
2022-11-26T03:31:44.994Z,2.89
2022-11-26T03:32:14.855Z,1.77
2022-11-26T03:32:49.184Z,1.12
2022-11-26T03:33:21.256Z,1.77
2022-11-26T03:33:43.674Z,2.57
2022-11-26T03:34:06.039Z,4.02
2022-11-26T03:34:41.343Z,2.09
2022-11-26T03:35:13.072Z,2.89
2022-11-26T03:35:45.059Z,2.57
2022-11-26T03:36:14.804Z,2.09
2022-11-26T03:36:49.466Z,1.77
2022-11-26T03:37:20.951Z,1.77
2022-11-26T03:37:43.719Z,2.89
2022-11-26T03:38:07.099Z,3.21
2022-11-26T03:38:41.420Z,2.57
2022-11-26T03:39:13.129Z,3.54
2022-11-26T03:39:45.323Z,2.89
2022-11-26T03:40:15.719Z,1.77
2022-11-26T03:40:49.484Z,3.54
2022-11-26T03:41:21.213Z,3.54
2022-11-26T03:41:44.243Z,2.09
2022-11-26T03:42:06.405Z,3.54
2022-11-26T03:42:42.042Z,2.09
2022-11-26T03:43:13.000Z,1.44
2022-11-26T03:43:45.515Z,1.44
2022-11-26T03:44:15.547Z,.64
2022-11-26T03:44:49.229Z,0
2022-11-26T03:45:21.502Z,.32
2022-11-26T03:45:44.098Z,0
2022-11-26T03:46:06.658Z,.32
2022-11-26T03:46:40.992Z,0
2022-11-26T03:47:14.675Z,2.57
2022-11-26T03:47:45.494Z,1.77
2022-11-26T03:48:15.544Z,1.77
2022-11-26T03:48:49.056Z,2.09
2022-11-26T03:49:21.400Z,1.44
2022-11-26T03:49:44.086Z,2.89
2022-11-26T03:50:06.515Z,2.89
2022-11-26T03:50:41.904Z,1.44
2022-11-26T03:51:13.193Z,.64
2022-11-26T03:51:46.223Z,.32
2022-11-26T03:52:17.073Z,3.54
2022-11-26T03:52:49.143Z,1.77
2022-11-26T03:53:20.944Z,0
2022-11-26T03:53:43.802Z,0
2022-11-26T03:54:06.947Z,0
2022-11-26T03:54:41.203Z,1.12
2022-11-26T03:55:13.345Z,0
2022-11-26T03:55:45.051Z,0
2022-11-26T03:56:15.471Z,1.12
2022-11-26T03:56:49.196Z,0
2022-11-26T03:57:20.874Z,0
2022-11-26T03:57:43.558Z,0
2022-11-26T03:58:06.065Z,0
2022-11-26T03:58:41.886Z,0
2022-11-26T03:59:13.034Z,0
2022-11-26T03:59:44.906Z,.32
2022-11-26T04:00:15.005Z,.32
2022-11-26T04:00:49.085Z,0
2022-11-26T04:01:22.566Z,0
2022-11-26T04:01:45.439Z,0
2022-11-26T04:02:08.158Z,0
2022-11-26T04:02:43.439Z,0
2022-11-26T04:03:14.279Z,0
2022-11-26T04:03:45.133Z,0
2022-11-26T04:04:15.086Z,0
2022-11-26T04:04:48.919Z,0
2022-11-26T04:05:22.511Z,0
2022-11-26T04:05:44.957Z,0
2022-11-26T04:06:07.369Z,0
2022-11-26T04:06:41.077Z,0
2022-11-26T04:07:13.066Z,0
2022-11-26T04:07:45.069Z,0
2022-11-26T04:08:14.780Z,0
2022-11-26T04:08:49.392Z,0
2022-11-26T04:09:21.259Z,.32
2022-11-26T04:09:49.379Z,0
2022-11-26T04:10:08.073Z,0
2022-11-26T04:10:41.127Z,0
2022-11-26T04:11:13.611Z,0
2022-11-26T04:11:45.218Z,0
2022-11-26T04:12:17.977Z,0
2022-11-26T04:12:50.236Z,0
2022-11-26T04:13:23.088Z,0
2022-11-26T04:13:45.840Z,0
2022-11-26T04:14:08.607Z,0
2022-11-26T04:14:41.854Z,0
2022-11-26T04:15:13.400Z,0
2022-11-26T04:15:46.047Z,0
2022-11-26T04:16:16.924Z,0
2022-11-26T04:16:49.147Z,0
2022-11-26T04:17:21.098Z,0
2022-11-26T04:17:43.733Z,0
2022-11-26T04:18:07.012Z,0
2022-11-26T04:18:41.520Z,0
2022-11-26T04:19:13.824Z,0
2022-11-26T04:19:45.237Z,.32
2022-11-26T04:20:15.500Z,.32
2022-11-26T04:20:52.769Z,0
2022-11-26T04:21:21.526Z,0
2022-11-26T04:21:43.915Z,0
2022-11-26T04:22:07.111Z,0
2022-11-26T04:22:41.629Z,0
2022-11-26T04:23:12.925Z,.32
2022-11-26T04:23:45.419Z,0
2022-11-26T04:24:17.588Z,0
2022-11-26T04:24:49.492Z,0
2022-11-26T04:25:22.151Z,0
2022-11-26T04:25:44.890Z,1.44
2022-11-26T04:26:07.834Z,0
2022-11-26T04:26:41.238Z,0
2022-11-26T04:27:13.574Z,0
2022-11-26T04:27:44.974Z,.32
2022-11-26T04:28:14.882Z,0
2022-11-26T04:28:49.220Z,0
2022-11-26T04:29:21.803Z,0
2022-11-26T04:29:44.358Z,0
2022-11-26T04:30:06.947Z,0
2022-11-26T04:30:41.106Z,0
2022-11-26T04:31:13.091Z,0
2022-11-26T04:31:45.290Z,0
2022-11-26T04:32:14.797Z,0
2022-11-26T04:32:48.956Z,0
2022-11-26T04:33:20.915Z,0
2022-11-26T04:33:43.489Z,0
2022-11-26T04:34:05.961Z,0
2022-11-26T04:34:41.295Z,0
2022-11-26T04:35:13.767Z,0
2022-11-26T04:35:45.224Z,0
2022-11-26T04:36:14.936Z,0
2022-11-26T04:36:48.807Z,0
2022-11-26T04:37:21.184Z,.32
2022-11-26T04:37:43.958Z,0
2022-11-26T04:38:06.279Z,0
2022-11-26T04:38:41.289Z,0
2022-11-26T04:39:13.359Z,0
2022-11-26T04:39:45.190Z,0
2022-11-26T04:40:15.594Z,0
2022-11-26T04:40:51.135Z,0
2022-11-26T04:41:20.983Z,0
2022-11-26T04:41:43.881Z,0
2022-11-26T04:42:06.876Z,0
2022-11-26T04:42:41.244Z,0
2022-11-26T04:43:13.523Z,0
2022-11-26T04:43:45.128Z,0
2022-11-26T04:44:15.164Z,0
2022-11-26T04:44:48.999Z,0
2022-11-26T04:45:21.029Z,0
2022-11-26T04:45:43.701Z,0
2022-11-26T04:46:06.013Z,0
2022-11-26T04:46:41.236Z,0
2022-11-26T04:47:13.661Z,0
2022-11-26T04:47:45.847Z,0
2022-11-26T04:48:16.812Z,0
2022-11-26T04:48:49.678Z,0
2022-11-26T04:49:21.578Z,0
2022-11-26T04:49:44.109Z,0
2022-11-26T04:50:07.289Z,0
2022-11-26T04:50:41.919Z,0
2022-11-26T04:51:13.571Z,0
2022-11-26T04:51:45.039Z,0
2022-11-26T04:52:15.111Z,0
2022-11-26T04:52:49.097Z,0
2022-11-26T04:53:21.911Z,0
2022-11-26T04:53:44.821Z,0
2022-11-26T04:54:12.777Z,0
2022-11-26T04:54:41.638Z,0
2022-11-26T04:55:13.015Z,0
2022-11-26T04:55:46.118Z,0
2022-11-26T04:56:16.945Z,0
2022-11-26T04:56:49.314Z,0
2022-11-26T04:57:21.700Z,0
2022-11-26T04:57:44.461Z,0
2022-11-26T04:58:07.126Z,0
2022-11-26T04:58:41.008Z,0
2022-11-26T04:59:13.835Z,0
2022-11-26T04:59:44.932Z,0
2022-11-26T05:00:14.837Z,0
2022-11-26T05:00:50.892Z,0
2022-11-26T05:01:21.127Z,0
2022-11-26T05:01:43.747Z,0
2022-11-26T05:02:06.010Z,0
2022-11-26T05:02:43.055Z,0
2022-11-26T05:03:13.244Z,.32
2022-11-26T05:03:45.049Z,0
2022-11-26T05:04:15.465Z,0
2022-11-26T05:04:49.831Z,0
2022-11-26T05:05:20.997Z,0
2022-11-26T05:05:43.582Z,0
2022-11-26T05:06:06.370Z,0
2022-11-26T05:06:41.065Z,0
2022-11-26T05:07:13.147Z,0
2022-11-26T05:07:45.121Z,0
2022-11-26T05:08:14.943Z,0
2022-11-26T05:08:48.889Z,0
2022-11-26T05:09:21.100Z,0
2022-11-26T05:09:45.278Z,0
2022-11-26T05:10:06.398Z,0
2022-11-26T05:10:41.698Z,0
2022-11-26T05:11:13.329Z,0
2022-11-26T05:11:46.838Z,0
2022-11-26T05:12:19.033Z,0
2022-11-26T05:12:49.605Z,0
2022-11-26T05:13:23.375Z,0
2022-11-26T05:13:45.771Z,0
2022-11-26T05:14:08.743Z,0
2022-11-26T05:14:41.250Z,.32
2022-11-26T05:15:16.420Z,0
2022-11-26T05:15:45.317Z,0
2022-11-26T05:16:15.373Z,0
2022-11-26T05:16:49.047Z,0
2022-11-26T05:17:21.191Z,0
2022-11-26T05:17:43.872Z,0
2022-11-26T05:18:06.642Z,0
2022-11-26T05:18:41.430Z,0
2022-11-26T05:19:12.979Z,0
2022-11-26T05:19:45.330Z,0
2022-11-26T05:20:15.090Z,0
2022-11-26T05:20:49.620Z,0
2022-11-26T05:21:21.834Z,0
2022-11-26T05:21:44.257Z,0
2022-11-26T05:22:07.533Z,0
2022-11-26T05:22:41.675Z,0
2022-11-26T05:23:13.068Z,0
2022-11-26T05:23:44.910Z,0
2022-11-26T05:24:14.881Z,0
2022-11-26T05:24:49.206Z,0
2022-11-26T05:25:21.855Z,0
2022-11-26T05:25:44.767Z,0
2022-11-26T05:26:07.083Z,0
2022-11-26T05:26:41.090Z,0
2022-11-26T05:27:12.954Z,0
2022-11-26T05:27:45.721Z,0
2022-11-26T05:28:15.196Z,0
2022-11-26T05:28:49.422Z,0
2022-11-26T05:29:20.999Z,0
2022-11-26T05:29:43.597Z,0
2022-11-26T05:30:06.865Z,0
2022-11-26T05:30:41.430Z,0
2022-11-26T05:31:13.026Z,0
2022-11-26T05:31:45.059Z,0
2022-11-26T05:32:14.991Z,0
2022-11-26T05:32:49.037Z,0
2022-11-26T05:33:20.981Z,0
2022-11-26T05:33:44.184Z,0
2022-11-26T05:34:06.715Z,0
2022-11-26T05:34:41.776Z,0
2022-11-26T05:35:12.816Z,0
2022-11-26T05:35:45.261Z,0
2022-11-26T05:36:14.893Z,0
2022-11-26T05:36:49.466Z,0
2022-11-26T05:37:21.094Z,0
2022-11-26T05:37:43.743Z,0
2022-11-26T05:38:06.927Z,0
2022-11-26T05:38:41.158Z,0
2022-11-26T05:39:13.233Z,0
2022-11-26T05:39:44.810Z,0
2022-11-26T05:40:14.932Z,0
2022-11-26T05:40:49.275Z,0
2022-11-26T05:41:21.145Z,0
2022-11-26T05:41:44.135Z,0
2022-11-26T05:42:09.121Z,0
2022-11-26T05:42:41.786Z,0
2022-11-26T05:43:13.447Z,0
2022-11-26T05:43:45.388Z,0
2022-11-26T05:44:15.660Z,0
2022-11-26T05:44:49.650Z,0
2022-11-26T05:45:21.363Z,0
2022-11-26T05:45:44.182Z,0
2022-11-26T05:46:06.622Z,0
2022-11-26T05:46:41.235Z,0
2022-11-26T05:47:13.200Z,0
2022-11-26T05:47:45.341Z,0
2022-11-26T05:48:15.232Z,0
2022-11-26T05:48:49.200Z,0
2022-11-26T05:49:21.219Z,0
2022-11-26T05:49:43.882Z,0
2022-11-26T05:50:06.621Z,0
2022-11-26T05:50:41.244Z,0
2022-11-26T05:51:13.203Z,0
2022-11-26T05:51:46.472Z,0
2022-11-26T05:52:17.363Z,0
2022-11-26T05:52:49.010Z,0
2022-11-26T05:53:21.081Z,0
2022-11-26T05:53:43.905Z,0
2022-11-26T05:54:07.899Z,0
2022-11-26T05:54:41.572Z,0
2022-11-26T05:55:13.195Z,0
2022-11-26T05:55:45.931Z,0
2022-11-26T05:56:17.044Z,0
2022-11-26T05:56:48.853Z,0
2022-11-26T05:57:21.030Z,0
2022-11-26T05:57:43.827Z,0
2022-11-26T05:58:06.184Z,0
2022-11-26T05:58:41.222Z,0
2022-11-26T05:59:12.793Z,0
2022-11-26T05:59:46.396Z,0
2022-11-26T06:00:17.067Z,0
2022-11-26T06:00:48.872Z,0
2022-11-26T06:01:20.848Z,0
2022-11-26T06:01:43.619Z,0
2022-11-26T06:02:06.859Z,0
2022-11-26T06:02:42.756Z,0
2022-11-26T06:03:17.025Z,0
2022-11-26T06:03:45.199Z,0
2022-11-26T06:04:15.282Z,0
2022-11-26T06:04:49.094Z,0
2022-11-26T06:05:21.956Z,0
2022-11-26T06:05:44.610Z,0
2022-11-26T06:06:07.698Z,0
2022-11-26T06:06:41.341Z,0
2022-11-26T06:07:13.792Z,0
2022-11-26T06:07:45.303Z,0
2022-11-26T06:08:14.711Z,0
2022-11-26T06:08:49.538Z,0
2022-11-26T06:09:21.305Z,0
2022-11-26T06:09:45.495Z,0
2022-11-26T06:10:07.032Z,0
2022-11-26T06:10:41.283Z,0
2022-11-26T06:11:13.278Z,1.12
2022-11-26T06:11:45.163Z,0
2022-11-26T06:12:15.205Z,0
2022-11-26T06:12:49.102Z,0
2022-11-26T06:13:23.467Z,0
2022-11-26T06:13:46.199Z,0
2022-11-26T06:14:09.007Z,0
2022-11-26T06:14:43.382Z,0
2022-11-26T06:15:13.047Z,0
2022-11-26T06:15:44.929Z,0
2022-11-26T06:16:15.276Z,0
2022-11-26T06:16:49.580Z,0
2022-11-26T06:17:21.051Z,0
2022-11-26T06:17:43.708Z,0
2022-11-26T06:18:07.693Z,0
2022-11-26T06:18:41.153Z,0
2022-11-26T06:19:13.001Z,0
2022-11-26T06:19:45.177Z,0
2022-11-26T06:20:18.246Z,0
2022-11-26T06:20:49.332Z,0
2022-11-26T06:21:21.561Z,0
2022-11-26T06:21:44.319Z,0
2022-11-26T06:22:07.193Z,0
2022-11-26T06:22:41.433Z,0
2022-11-26T06:23:13.058Z,0
2022-11-26T06:23:52.854Z,0
2022-11-26T06:24:14.859Z,0
2022-11-26T06:24:49.227Z,0
2022-11-26T06:25:20.944Z,0
2022-11-26T06:25:44.184Z,0
2022-11-26T06:26:06.366Z,0
2022-11-26T06:26:41.806Z,0
2022-11-26T06:27:13.065Z,0
2022-11-26T06:27:44.910Z,0
2022-11-26T06:28:14.957Z,0
2022-11-26T06:28:49.052Z,0
2022-11-26T06:29:24.781Z,0
2022-11-26T06:29:43.955Z,0
2022-11-26T06:30:09.384Z,0
2022-11-26T06:30:41.069Z,0
2022-11-26T06:31:13.049Z,0
2022-11-26T06:31:44.921Z,0
2022-11-26T06:32:14.823Z,0
2022-11-26T06:32:49.086Z,0
2022-11-26T06:33:20.874Z,0
2022-11-26T06:33:43.627Z,0
2022-11-26T06:34:06.245Z,0
2022-11-26T06:34:43.902Z,.32
2022-11-26T06:35:13.471Z,0
2022-11-26T06:35:52.409Z,0
2022-11-26T06:36:14.846Z,0
2022-11-26T06:36:48.936Z,0
2022-11-26T06:37:21.186Z,1.12
2022-11-26T06:37:46.695Z,1.12
2022-11-26T06:38:08.727Z,.32
2022-11-26T06:38:41.186Z,0
2022-11-26T06:39:14.374Z,0
2022-11-26T06:39:44.910Z,0
2022-11-26T06:40:14.846Z,0
2022-11-26T06:40:48.901Z,0
2022-11-26T06:41:20.901Z,0
2022-11-26T06:41:43.965Z,0
2022-11-26T06:42:06.559Z,0
2022-11-26T06:42:41.127Z,0
2022-11-26T06:43:12.952Z,0
2022-11-26T06:43:44.838Z,0
2022-11-26T06:44:14.819Z,0
2022-11-26T06:44:48.959Z,0
2022-11-26T06:45:21.086Z,0
2022-11-26T06:45:44.297Z,0
2022-11-26T06:46:07.193Z,0
2022-11-26T06:46:41.483Z,0
2022-11-26T06:47:09.999Z,0
2022-11-26T06:47:45.171Z,0
2022-11-26T06:48:15.034Z,0
2022-11-26T06:48:49.269Z,0
2022-11-26T06:49:21.529Z,0
2022-11-26T06:49:44.240Z,0
2022-11-26T06:50:10.543Z,0
2022-11-26T06:50:40.929Z,0
2022-11-26T06:51:14.323Z,0
2022-11-26T06:51:48.107Z,0
2022-11-26T06:52:10.761Z,0
2022-11-26T06:52:49.318Z,0
2022-11-26T06:53:21.032Z,0
2022-11-26T06:53:43.708Z,0
2022-11-26T06:54:06.258Z,0
2022-11-26T06:54:41.192Z,0
2022-11-26T06:55:13.229Z,0
2022-11-26T06:55:48.362Z,0
2022-11-26T06:56:18.027Z,0
2022-11-26T06:56:48.948Z,0
2022-11-26T06:57:22.710Z,0
2022-11-26T06:57:44.167Z,0
2022-11-26T06:58:06.614Z,0
2022-11-26T06:58:40.878Z,0
2022-11-26T06:59:13.015Z,1.44
2022-11-26T06:59:44.919Z,0
2022-11-26T07:00:15.131Z,0
2022-11-26T07:00:48.996Z,0
2022-11-26T07:01:21.290Z,.32
2022-11-26T07:01:44.004Z,1.12
2022-11-26T07:02:06.444Z,0
2022-11-26T07:02:41.001Z,0
2022-11-26T07:03:12.943Z,0
2022-11-26T07:03:44.886Z,0
2022-11-26T07:04:17.535Z,0
2022-11-26T07:04:46.549Z,0
2022-11-26T07:05:15.275Z,.32
2022-11-26T07:05:47.115Z,0
2022-11-26T07:06:25.033Z,0
2022-11-26T07:06:47.720Z,0
2022-11-26T07:07:10.152Z,0
2022-11-26T07:07:45.059Z,0
2022-11-26T07:08:14.982Z,0
2022-11-26T07:08:48.889Z,0
2022-11-26T07:09:21.099Z,0
2022-11-26T07:09:46.374Z,0
2022-11-26T07:10:06.070Z,0
2022-11-26T07:10:46.124Z,0
2022-11-26T07:11:12.976Z,0
2022-11-26T07:11:44.950Z,0
2022-11-26T07:12:15.090Z,0
2022-11-26T07:12:49.034Z,0
2022-11-26T07:13:26.452Z,0
2022-11-26T07:13:43.943Z,0
2022-11-26T07:14:06.717Z,0
2022-11-26T07:14:41.619Z,0
2022-11-26T07:15:13.186Z,0
2022-11-26T07:15:44.937Z,0